KCOU/COU METAR and TAF weather

Enter ICAO airport designator
Station Type Date Time Source
KCOU METAR 2021/09/16 21:54 UTC NOAA

KCOU 162154Z AUTO 12009KT 10SM CLR 31/11 A2997 RMK AO2 SLP141 T03060106


Station Type Date Time Source
KCOU Decoded METAR 2021/09/16 21:54 UTC NOAA

COLUMBIA REGIONAL AIRPORT, MO, United States (KCOU) 38-49N 092-13W 271M
Sep 16, 2021 - 05:54 PM EDT / 2021.09.16 2154 UTC
Wind: from the ESE (120 degrees) at 10 MPH (9 KT):0
Visibility: 10 mile(s):0
Sky conditions: clear
Temperature: 87.1 F (30.6 C)
Dew Point: 51.1 F (10.6 C)
Relative Humidity: 29%
Pressure (altimeter): 29.97 in. Hg (1014 hPa)
ob: KCOU 162154Z AUTO 12009KT 10SM CLR 31/11 A2997 RMK AO2 SLP141 T03060106
cycle: 22

Station Type Date Time Source
KCOU TAF 2021/09/16 18:33 UTC NOAA

TAF KCOU 161730Z 1618/1718 14009KT P6SM SKC
FM170200 VRB03KT P6SM SKC

Example: see airport list